Share

Benham, KY (40807)

9:47 PM EDT on April 24, 2014 (GMT -0400)
Kona/PayneGap (KKYJENKI2) Elev 1322 ft | 37.15 °N, 82.71 °W | Change Station

Current weather conditions updated 11 minutes ago

Clear
Clear
56.5 °F
Feels Like 56.5 °F
N
1.1
Wind Variable Wind from NNW
Sunrise 6:45 AM
Sunset 8:14 PM
Moon Waning Crescent

Tomorrow is forecast to be Much Cooler than today. Thunderstorms.

Pressure 29.90 in
Visibility 10.0 miles
Clouds Clear
Dew Point 43 °F
Humidity 60%
Rainfall 0.00 in
Snow Depth Not available.
UV 0 out of 16
Pollen 9.00 out of 12
Air Quality Not available.
Flu Activity Sporadic
METAR KI35 250135Z AUTO 16003KT 10SM CLR 17/00 A2990 RMK AO1

More Conditions Fewer Conditions

Pressure 29.90 in
Visibility 10.0 miles
Clouds Clear
Dew Point 43 °F
Humidity 60%
Rainfall 0.00 in
Snow Depth Not available.
UV 0 out of 16
Pollen 9.00 out of 12
Air Quality Not available.
Flu Activity Sporadic
METAR KI35 250135Z AUTO 16003KT 10SM CLR 17/00 A2990 RMK AO1

More Conditions Fewer Conditions

10-Day Weather Forecast

Almanac

Astronomy

Apr. 24, 2014 Rise Set
Actual Time 6:45 AM EDT 8:14 PM EDT
Civil Twilight 6:18 AM EDT 8:41 PM EDT
Nautical Twilight 5:45 AM EDT 9:14 PM EDT
Astronomical Twilight 5:11 AM EDT 9:49 PM EDT
Moon 3:48 AM EDT (4/24) 3:35 PM EDT (4/24)
Length of Visible Light 14h 23m
Length of Day
13h 28m
Tomorrow will be 2m 8s longer.
Waning Crescent, 21% of the Moon is Illuminated
Today
Waning Crescent
Apr 29
New
May 6
First Quarter
May 14
Full
May 21
Last Quarter

Today's Extremes

State Highs State Lows

Community

  • Jone Runs Falls
    Jone Runs Falls
  • Easter in Shenandoah National Park
    Easter in Shenandoah National Park
  • Sunset at Apalachicola Bay, Florida
    Sunset at Apalachicola Bay, Florida
  • Clouds mov'n in
    Clouds mov'n in
  • Stacked
    Stacked

WunderPhotos

Upload Photos

1,704,789 photos uploaded!

Nearby

Snow Depth

Station Depth Elevation
No new snow has been reported.

Coastal Water Temperatures

Place Temperature
No Stations Reporting

Earthquake Activity

City Distance Mag. Time & Date
No recent earthquake activity has been reported nearby.
Minimum magnitude displayed is 2.5.

Nearby Weather Stations

Station Location Temp. Dew Point Humidity Wind Precip. Elev Updated Type
Kona/PayneGap, Jenkins, KY 56.5 °F 43 °F 60% NNW  at  1.1 mph - / hr 1322 ft 9:35 PM EDT Normal
RAWS PRAWS 7 VA, Pound, VA 63 °F 25 °F 23% ESE  at  1 mph 0.00 in / hr 2315 ft 8:24 PM EDT MADIS
RAWS WISE VA, Wise, VA 59 °F 30 °F 33% North  at  0 mph 0.00 in / hr 2529 ft 9:11 PM EDT MADIS

Show More Stations Show Fewer Stations

What do you think?

We're not finished. Please let us know what you like, what you don't like, and what you are still missing.